sensor_id;sensor_type;location;lat;lon;timestamp;temperature;humidity
18998;DHT22;9632;51.018;4.284;2022-07-29T00:00:00;21.10;99.90
18998;DHT22;9632;51.018;4.284;2022-07-29T00:02:26;21.10;99.90
18998;DHT22;9632;51.018;4.284;2022-07-29T00:04:52;21.10;99.90
18998;DHT22;9632;51.018;4.284;2022-07-29T00:07:17;21.10;99.90
18998;DHT22;9632;51.018;4.284;2022-07-29T00:09:43;21.10;99.90
18998;DHT22;9632;51.018;4.284;2022-07-29T00:12:09;21.10;99.90
18998;DHT22;9632;51.018;4.284;2022-07-29T00:14:34;21.10;99.90
18998;DHT22;9632;51.018;4.284;2022-07-29T00:17:00;21.00;99.90
18998;DHT22;9632;51.018;4.284;2022-07-29T00:19:25;21.00;99.90
18998;DHT22;9632;51.018;4.284;2022-07-29T00:21:51;21.10;99.90
18998;DHT22;9632;51.018;4.284;2022-07-29T00:24:17;21.00;99.90
18998;DHT22;9632;51.018;4.284;2022-07-29T00:26:43;21.00;99.90
18998;DHT22;9632;51.018;4.284;2022-07-29T00:29:08;21.00;99.90
18998;DHT22;9632;51.018;4.284;2022-07-29T00:31:34;21.00;99.90
18998;DHT22;9632;51.018;4.284;2022-07-29T00:33:59;20.90;99.90
18998;DHT22;9632;51.018;4.284;2022-07-29T00:36:25;20.90;99.90
18998;DHT22;9632;51.018;4.284;2022-07-29T00:38:51;20.90;99.90
18998;DHT22;9632;51.018;4.284;2022-07-29T00:41:17;20.70;99.90
18998;DHT22;9632;51.018;4.284;2022-07-29T00:43:43;20.70;99.90
18998;DHT22;9632;51.018;4.284;2022-07-29T00:46:09;20.70;99.90
18998;DHT22;9632;51.018;4.284;2022-07-29T00:48:35;20.70;99.90
18998;DHT22;9632;51.018;4.284;2022-07-29T00:51:02;20.70;99.90
18998;DHT22;9632;51.018;4.284;2022-07-29T00:53:29;20.80;99.90
18998;DHT22;9632;51.018;4.284;2022-07-29T00:55:55;20.80;99.90
18998;DHT22;9632;51.018;4.284;2022-07-29T00:58:21;20.90;99.90
18998;DHT22;9632;51.018;4.284;2022-07-29T01:00:47;20.90;99.90
18998;DHT22;9632;51.018;4.284;2022-07-29T01:03:13;20.90;99.90
18998;DHT22;9632;51.018;4.284;2022-07-29T01:05:39;20.90;99.90
18998;DHT22;9632;51.018;4.284;2022-07-29T01:08:06;20.90;99.90
18998;DHT22;9632;51.018;4.284;2022-07-29T01:10:32;20.90;99.90
18998;DHT22;9632;51.018;4.284;2022-07-29T01:12:59;20.80;99.90
18998;DHT22;9632;51.018;4.284;2022-07-29T01:15:26;20.70;99.90
18998;DHT22;9632;51.018;4.284;2022-07-29T01:18:07;20.70;99.90
18998;DHT22;9632;51.018;4.284;2022-07-29T01:23:18;20.70;99.90
18998;DHT22;9632;51.018;4.284;2022-07-29T01:29:03;20.80;99.90
18998;DHT22;9632;51.018;4.284;2022-07-29T01:34:07;20.70;99.90
18998;DHT22;9632;51.018;4.284;2022-07-29T01:36:40;20.70;99.90
18998;DHT22;9632;51.018;4.284;2022-07-29T01:39:19;20.70;99.90
18998;DHT22;9632;51.018;4.284;2022-07-29T01:41:59;20.70;99.90
18998;DHT22;9632;51.018;4.284;2022-07-29T01:44:37;20.70;99.90
18998;DHT22;9632;51.018;4.284;2022-07-29T01:47:10;20.70;99.90
18998;DHT22;9632;51.018;4.284;2022-07-29T01:49:43;20.70;99.90
18998;DHT22;9632;51.018;4.284;2022-07-29T01:52:19;20.70;99.90
18998;DHT22;9632;51.018;4.284;2022-07-29T01:54:51;20.70;99.90
18998;DHT22;9632;51.018;4.284;2022-07-29T01:57:21;20.70;99.90
18998;DHT22;9632;51.018;4.284;2022-07-29T01:59:51;20.70;99.90
18998;DHT22;9632;51.018;4.284;2022-07-29T02:02:18;20.70;99.90
18998;DHT22;9632;51.018;4.284;2022-07-29T02:04:46;20.70;99.90
18998;DHT22;9632;51.018;4.284;2022-07-29T02:07:16;20.70;99.90
18998;DHT22;9632;51.018;4.284;2022-07-29T02:09:43;20.70;99.90
18998;DHT22;9632;51.018;4.284;2022-07-29T02:12:11;20.60;99.90
18998;DHT22;9632;51.018;4.284;2022-07-29T02:14:43;20.60;99.90
18998;DHT22;9632;51.018;4.284;2022-07-29T02:17:11;20.60;99.90
18998;DHT22;9632;51.018;4.284;2022-07-29T02:19:38;20.50;99.90
18998;DHT22;9632;51.018;4.284;2022-07-29T02:22:06;20.50;99.90
18998;DHT22;9632;51.018;4.284;2022-07-29T02:24:35;20.50;99.90
18998;DHT22;9632;51.018;4.284;2022-07-29T02:27:02;20.50;99.90
18998;DHT22;9632;51.018;4.284;2022-07-29T02:29:30;20.40;99.90
18998;DHT22;9632;51.018;4.284;2022-07-29T02:31:58;20.40;99.90
18998;DHT22;9632;51.018;4.284;2022-07-29T02:34:25;20.30;99.90
18998;DHT22;9632;51.018;4.284;2022-07-29T02:36:52;20.30;99.90
18998;DHT22;9632;51.018;4.284;2022-07-29T02:39:19;20.30;99.90
18998;DHT22;9632;51.018;4.284;2022-07-29T02:41:51;20.20;99.90
18998;DHT22;9632;51.018;4.284;2022-07-29T02:44:20;20.20;99.90
18998;DHT22;9632;51.018;4.284;2022-07-29T02:47:13;20.10;99.90
18998;DHT22;9632;51.018;4.284;2022-07-29T02:49:38;20.10;99.90
18998;DHT22;9632;51.018;4.284;2022-07-29T02:52:12;20.00;99.90
18998;DHT22;9632;51.018;4.284;2022-07-29T02:54:54;20.00;99.90
18998;DHT22;9632;51.018;4.284;2022-07-29T02:57:33;19.90;99.90
18998;DHT22;9632;51.018;4.284;2022-07-29T03:00:04;19.90;99.90
18998;DHT22;9632;51.018;4.284;2022-07-29T03:02:34;19.80;99.90
18998;DHT22;9632;51.018;4.284;2022-07-29T03:05:02;19.80;99.90
18998;DHT22;9632;51.018;4.284;2022-07-29T03:07:28;19.80;99.90
18998;DHT22;9632;51.018;4.284;2022-07-29T03:09:54;19.80;99.90
18998;DHT22;9632;51.018;4.284;2022-07-29T03:12:21;19.70;99.90
18998;DHT22;9632;51.018;4.284;2022-07-29T03:14:48;19.70;99.90
18998;DHT22;9632;51.018;4.284;2022-07-29T03:17:14;19.70;99.90
18998;DHT22;9632;51.018;4.284;2022-07-29T03:19:40;19.60;99.90
18998;DHT22;9632;51.018;4.284;2022-07-29T03:22:07;19.60;99.90
18998;DHT22;9632;51.018;4.284;2022-07-29T03:24:37;19.60;99.90
18998;DHT22;9632;51.018;4.284;2022-07-29T03:27:03;19.50;99.90
18998;DHT22;9632;51.018;4.284;2022-07-29T03:29:29;19.50;99.90
18998;DHT22;9632;51.018;4.284;2022-07-29T03:31:55;19.50;99.90
18998;DHT22;9632;51.018;4.284;2022-07-29T03:34:20;19.40;99.90
18998;DHT22;9632;51.018;4.284;2022-07-29T03:36:46;19.40;99.90
18998;DHT22;9632;51.018;4.284;2022-07-29T03:39:18;19.30;99.90
18998;DHT22;9632;51.018;4.284;2022-07-29T03:41:46;19.30;99.90
18998;DHT22;9632;51.018;4.284;2022-07-29T03:44:14;19.20;99.90
18998;DHT22;9632;51.018;4.284;2022-07-29T03:46:41;19.20;99.90
18998;DHT22;9632;51.018;4.284;2022-07-29T03:49:09;19.10;99.90
18998;DHT22;9632;51.018;4.284;2022-07-29T03:51:36;19.10;99.90
18998;DHT22;9632;51.018;4.284;2022-07-29T03:54:02;19.10;99.90
18998;DHT22;9632;51.018;4.284;2022-07-29T03:56:29;19.10;99.90
18998;DHT22;9632;51.018;4.284;2022-07-29T03:58:56;19.00;99.90
18998;DHT22;9632;51.018;4.284;2022-07-29T04:01:22;19.00;99.90
18998;DHT22;9632;51.018;4.284;2022-07-29T04:03:49;18.90;99.90
18998;DHT22;9632;51.018;4.284;2022-07-29T04:06:15;18.80;99.90
18998;DHT22;9632;51.018;4.284;2022-07-29T04:08:40;18.80;99.90
18998;DHT22;9632;51.018;4.284;2022-07-29T04:11:06;18.70;99.90
18998;DHT22;9632;51.018;4.284;2022-07-29T04:13:32;18.70;99.90
18998;DHT22;9632;51.018;4.284;2022-07-29T04:15:58;18.60;99.90
18998;DHT22;9632;51.018;4.284;2022-07-29T04:18:23;18.50;99.90
18998;DHT22;9632;51.018;4.284;2022-07-29T04:20:49;18.50;99.90
18998;DHT22;9632;51.018;4.284;2022-07-29T04:23:15;18.50;99.90
18998;DHT22;9632;51.018;4.284;2022-07-29T04:25:41;18.50;99.90
18998;DHT22;9632;51.018;4.284;2022-07-29T04:28:08;18.40;99.90
18998;DHT22;9632;51.018;4.284;2022-07-29T04:30:35;18.50;99.90
18998;DHT22;9632;51.018;4.284;2022-07-29T04:33:02;18.40;99.90
18998;DHT22;9632;51.018;4.284;2022-07-29T04:35:35;18.40;99.90
18998;DHT22;9632;51.018;4.284;2022-07-29T04:38:01;18.40;99.90
18998;DHT22;9632;51.018;4.284;2022-07-29T04:40:28;18.40;99.90
18998;DHT22;9632;51.018;4.284;2022-07-29T04:42:53;18.40;99.90
18998;DHT22;9632;51.018;4.284;2022-07-29T04:45:19;18.40;99.90
18998;DHT22;9632;51.018;4.284;2022-07-29T04:47:45;18.40;99.90
18998;DHT22;9632;51.018;4.284;2022-07-29T04:50:10;18.50;99.90
18998;DHT22;9632;51.018;4.284;2022-07-29T04:52:36;18.40;99.90
18998;DHT22;9632;51.018;4.284;2022-07-29T04:55:04;18.40;99.90
18998;DHT22;9632;51.018;4.284;2022-07-29T04:57:30;18.50;99.90
18998;DHT22;9632;51.018;4.284;2022-07-29T04:59:56;18.60;99.90
18998;DHT22;9632;51.018;4.284;2022-07-29T05:02:21;18.80;99.90
18998;DHT22;9632;51.018;4.284;2022-07-29T05:04:47;19.00;99.90
18998;DHT22;9632;51.018;4.284;2022-07-29T05:07:13;19.20;99.90
18998;DHT22;9632;51.018;4.284;2022-07-29T05:09:39;19.40;99.90
18998;DHT22;9632;51.018;4.284;2022-07-29T05:12:06;19.60;99.90
18998;DHT22;9632;51.018;4.284;2022-07-29T05:14:32;19.80;99.90
18998;DHT22;9632;51.018;4.284;2022-07-29T05:16:57;20.00;99.90
18998;DHT22;9632;51.018;4.284;2022-07-29T05:19:23;20.20;99.90
18998;DHT22;9632;51.018;4.284;2022-07-29T05:21:49;20.50;99.90
18998;DHT22;9632;51.018;4.284;2022-07-29T05:24:15;20.60;99.90
18998;DHT22;9632;51.018;4.284;2022-07-29T05:26:41;20.80;99.90
18998;DHT22;9632;51.018;4.284;2022-07-29T05:29:07;21.00;99.90
18998;DHT22;9632;51.018;4.284;2022-07-29T05:31:33;21.10;99.90
18998;DHT22;9632;51.018;4.284;2022-07-29T05:33:59;21.30;99.90
18998;DHT22;9632;51.018;4.284;2022-07-29T05:36:24;21.50;99.90
18998;DHT22;9632;51.018;4.284;2022-07-29T05:38:50;21.60;99.90
18998;DHT22;9632;51.018;4.284;2022-07-29T05:41:17;21.80;99.90
18998;DHT22;9632;51.018;4.284;2022-07-29T05:43:46;22.00;99.90
18998;DHT22;9632;51.018;4.284;2022-07-29T05:46:12;22.10;99.90
18998;DHT22;9632;51.018;4.284;2022-07-29T05:48:39;22.30;99.90
18998;DHT22;9632;51.018;4.284;2022-07-29T05:51:05;22.30;99.90
18998;DHT22;9632;51.018;4.284;2022-07-29T05:53:31;22.20;99.90
18998;DHT22;9632;51.018;4.284;2022-07-29T05:55:57;22.20;99.90
18998;DHT22;9632;51.018;4.284;2022-07-29T05:58:22;22.10;99.90
18998;DHT22;9632;51.018;4.284;2022-07-29T06:00:48;22.00;99.90
18998;DHT22;9632;51.018;4.284;2022-07-29T06:03:14;21.90;99.90
18998;DHT22;9632;51.018;4.284;2022-07-29T06:05:39;21.90;99.90
18998;DHT22;9632;51.018;4.284;2022-07-29T06:08:05;21.80;99.90
18998;DHT22;9632;51.018;4.284;2022-07-29T06:10:32;21.80;99.90
18998;DHT22;9632;51.018;4.284;2022-07-29T06:12:58;21.80;99.90
18998;DHT22;9632;51.018;4.284;2022-07-29T06:15:23;21.90;99.90
18998;DHT22;9632;51.018;4.284;2022-07-29T06:17:49;22.10;99.90
18998;DHT22;9632;51.018;4.284;2022-07-29T06:20:15;22.30;99.90
18998;DHT22;9632;51.018;4.284;2022-07-29T06:22:40;22.40;99.90
18998;DHT22;9632;51.018;4.284;2022-07-29T06:25:06;22.50;99.90
18998;DHT22;9632;51.018;4.284;2022-07-29T06:27:32;22.60;99.90
18998;DHT22;9632;51.018;4.284;2022-07-29T06:29:57;22.80;99.90
18998;DHT22;9632;51.018;4.284;2022-07-29T06:32:23;23.00;99.90
18998;DHT22;9632;51.018;4.284;2022-07-29T06:34:49;23.20;99.90
18998;DHT22;9632;51.018;4.284;2022-07-29T06:37:14;23.20;99.90
18998;DHT22;9632;51.018;4.284;2022-07-29T06:39:40;23.20;99.90
18998;DHT22;9632;51.018;4.284;2022-07-29T06:42:06;23.00;99.90
18998;DHT22;9632;51.018;4.284;2022-07-29T06:44:32;22.90;99.90
18998;DHT22;9632;51.018;4.284;2022-07-29T06:47:01;22.90;99.90
18998;DHT22;9632;51.018;4.284;2022-07-29T06:49:27;23.00;99.90
18998;DHT22;9632;51.018;4.284;2022-07-29T06:51:53;22.90;99.90
18998;DHT22;9632;51.018;4.284;2022-07-29T06:54:19;23.10;99.90
18998;DHT22;9632;51.018;4.284;2022-07-29T06:56:45;23.20;99.90
18998;DHT22;9632;51.018;4.284;2022-07-29T06:59:11;23.40;99.90
18998;DHT22;9632;51.018;4.284;2022-07-29T07:01:39;23.60;99.90
18998;DHT22;9632;51.018;4.284;2022-07-29T07:04:06;23.60;99.90
18998;DHT22;9632;51.018;4.284;2022-07-29T07:06:32;23.70;99.90
18998;DHT22;9632;51.018;4.284;2022-07-29T07:08:57;23.90;99.90
18998;DHT22;9632;51.018;4.284;2022-07-29T07:11:23;24.00;99.90
18998;DHT22;9632;51.018;4.284;2022-07-29T07:13:49;24.20;99.90
18998;DHT22;9632;51.018;4.284;2022-07-29T07:16:15;24.30;99.90
18998;DHT22;9632;51.018;4.284;2022-07-29T07:18:41;24.50;99.90
18998;DHT22;9632;51.018;4.284;2022-07-29T07:21:06;24.50;99.90
18998;DHT22;9632;51.018;4.284;2022-07-29T07:23:32;24.70;99.90
18998;DHT22;9632;51.018;4.284;2022-07-29T07:25:57;24.90;99.90
18998;DHT22;9632;51.018;4.284;2022-07-29T07:28:23;25.10;99.90
18998;DHT22;9632;51.018;4.284;2022-07-29T07:30:49;25.30;99.90
18998;DHT22;9632;51.018;4.284;2022-07-29T07:33:14;25.50;99.90
18998;DHT22;9632;51.018;4.284;2022-07-29T07:35:41;25.50;99.90
18998;DHT22;9632;51.018;4.284;2022-07-29T07:38:06;25.60;99.90
18998;DHT22;9632;51.018;4.284;2022-07-29T07:40:32;25.70;99.90
18998;DHT22;9632;51.018;4.284;2022-07-29T07:42:58;25.60;99.90
18998;DHT22;9632;51.018;4.284;2022-07-29T07:45:24;25.70;99.90
18998;DHT22;9632;51.018;4.284;2022-07-29T07:47:49;25.80;99.90
18998;DHT22;9632;51.018;4.284;2022-07-29T07:50:15;25.90;99.90
18998;DHT22;9632;51.018;4.284;2022-07-29T07:52:47;25.90;99.90
18998;DHT22;9632;51.018;4.284;2022-07-29T07:55:14;26.00;99.90
18998;DHT22;9632;51.018;4.284;2022-07-29T07:57:40;26.00;99.90
18998;DHT22;9632;51.018;4.284;2022-07-29T08:00:06;26.10;99.90
18998;DHT22;9632;51.018;4.284;2022-07-29T08:02:32;26.10;99.90
18998;DHT22;9632;51.018;4.284;2022-07-29T08:04:57;26.30;99.90
18998;DHT22;9632;51.018;4.284;2022-07-29T08:07:24;26.30;99.90
18998;DHT22;9632;51.018;4.284;2022-07-29T08:09:50;26.30;99.90
18998;DHT22;9632;51.018;4.284;2022-07-29T08:12:16;26.30;99.90
18998;DHT22;9632;51.018;4.284;2022-07-29T08:14:41;26.40;99.90
18998;DHT22;9632;51.018;4.284;2022-07-29T08:17:07;26.60;99.90
18998;DHT22;9632;51.018;4.284;2022-07-29T08:19:32;26.70;99.90
18998;DHT22;9632;51.018;4.284;2022-07-29T08:21:58;26.80;99.90
18998;DHT22;9632;51.018;4.284;2022-07-29T08:24:24;26.80;99.90
18998;DHT22;9632;51.018;4.284;2022-07-29T08:27:11;26.90;99.90
18998;DHT22;9632;51.018;4.284;2022-07-29T08:29:37;27.00;99.90
18998;DHT22;9632;51.018;4.284;2022-07-29T08:32:04;27.20;99.90
18998;DHT22;9632;51.018;4.284;2022-07-29T08:34:30;27.20;99.90
18998;DHT22;9632;51.018;4.284;2022-07-29T08:36:56;27.30;99.90
18998;DHT22;9632;51.018;4.284;2022-07-29T08:39:23;27.30;99.70
18998;DHT22;9632;51.018;4.284;2022-07-29T08:41:49;27.30;99.90
18998;DHT22;9632;51.018;4.284;2022-07-29T08:44:16;27.30;99.90
18998;DHT22;9632;51.018;4.284;2022-07-29T08:46:42;27.30;99.90
18998;DHT22;9632;51.018;4.284;2022-07-29T08:49:08;27.30;99.90
18998;DHT22;9632;51.018;4.284;2022-07-29T08:51:34;27.40;99.50
18998;DHT22;9632;51.018;4.284;2022-07-29T08:54:02;27.40;98.50
18998;DHT22;9632;51.018;4.284;2022-07-29T08:56:28;27.40;99.40
18998;DHT22;9632;51.018;4.284;2022-07-29T08:58:55;27.40;99.80
18998;DHT22;9632;51.018;4.284;2022-07-29T09:01:24;27.30;99.90
18998;DHT22;9632;51.018;4.284;2022-07-29T09:03:55;27.40;99.80
18998;DHT22;9632;51.018;4.284;2022-07-29T09:06:21;27.50;98.90
18998;DHT22;9632;51.018;4.284;2022-07-29T09:08:47;27.70;98.40
18998;DHT22;9632;51.018;4.284;2022-07-29T09:11:14;27.70;99.40
18998;DHT22;9632;51.018;4.284;2022-07-29T09:13:40;27.80;98.70
18998;DHT22;9632;51.018;4.284;2022-07-29T09:16:06;27.90;98.60
18998;DHT22;9632;51.018;4.284;2022-07-29T09:18:37;28.00;98.60
18998;DHT22;9632;51.018;4.284;2022-07-29T09:21:04;28.00;98.50
18998;DHT22;9632;51.018;4.284;2022-07-29T09:24:09;28.00;98.00
18998;DHT22;9632;51.018;4.284;2022-07-29T09:26:37;28.10;98.40
18998;DHT22;9632;51.018;4.284;2022-07-29T09:31:38;28.20;96.40
18998;DHT22;9632;51.018;4.284;2022-07-29T09:34:04;28.20;96.40
18998;DHT22;9632;51.018;4.284;2022-07-29T09:36:30;28.10;95.80
18998;DHT22;9632;51.018;4.284;2022-07-29T09:39:00;28.20;94.10
18998;DHT22;9632;51.018;4.284;2022-07-29T09:41:27;28.20;94.70
18998;DHT22;9632;51.018;4.284;2022-07-29T09:43:59;28.20;95.20
18998;DHT22;9632;51.018;4.284;2022-07-29T09:46:25;28.20;94.20
18998;DHT22;9632;51.018;4.284;2022-07-29T09:49:11;28.10;94.30
18998;DHT22;9632;51.018;4.284;2022-07-29T09:51:38;28.10;94.10
18998;DHT22;9632;51.018;4.284;2022-07-29T09:54:34;28.20;93.90
18998;DHT22;9632;51.018;4.284;2022-07-29T09:57:07;28.20;93.70
18998;DHT22;9632;51.018;4.284;2022-07-29T09:59:34;28.30;93.80
18998;DHT22;9632;51.018;4.284;2022-07-29T10:02:00;28.20;92.40
18998;DHT22;9632;51.018;4.284;2022-07-29T10:04:41;28.00;91.10
18998;DHT22;9632;51.018;4.284;2022-07-29T10:07:07;28.10;92.80
18998;DHT22;9632;51.018;4.284;2022-07-29T10:09:33;28.20;92.70
18998;DHT22;9632;51.018;4.284;2022-07-29T10:12:17;28.40;93.60
18998;DHT22;9632;51.018;4.284;2022-07-29T10:14:43;28.60;93.60
18998;DHT22;9632;51.018;4.284;2022-07-29T10:17:10;28.60;93.10
18998;DHT22;9632;51.018;4.284;2022-07-29T10:19:37;28.70;90.70
18998;DHT22;9632;51.018;4.284;2022-07-29T10:22:06;28.60;90.60
18998;DHT22;9632;51.018;4.284;2022-07-29T10:24:33;28.60;92.20
18998;DHT22;9632;51.018;4.284;2022-07-29T10:27:00;28.50;91.40
18998;DHT22;9632;51.018;4.284;2022-07-29T10:29:26;28.60;92.90
18998;DHT22;9632;51.018;4.284;2022-07-29T10:32:16;28.50;91.70
18998;DHT22;9632;51.018;4.284;2022-07-29T10:37:31;28.60;91.20
18998;DHT22;9632;51.018;4.284;2022-07-29T10:42:53;28.90;89.80
18998;DHT22;9632;51.018;4.284;2022-07-29T10:45:20;28.90;91.30
18998;DHT22;9632;51.018;4.284;2022-07-29T10:47:46;28.90;90.80
18998;DHT22;9632;51.018;4.284;2022-07-29T10:50:11;28.80;87.40
18998;DHT22;9632;51.018;4.284;2022-07-29T10:52:56;28.70;89.10
18998;DHT22;9632;51.018;4.284;2022-07-29T10:55:36;28.60;87.40
18998;DHT22;9632;51.018;4.284;2022-07-29T11:00:41;28.50;88.40
18998;DHT22;9632;51.018;4.284;2022-07-29T11:03:07;28.50;88.00
18998;DHT22;9632;51.018;4.284;2022-07-29T11:05:54;28.60;86.80
18998;DHT22;9632;51.018;4.284;2022-07-29T11:08:22;28.70;86.70
18998;DHT22;9632;51.018;4.284;2022-07-29T11:10:53;28.70;87.70
18998;DHT22;9632;51.018;4.284;2022-07-29T11:16:14;28.80;88.70
18998;DHT22;9632;51.018;4.284;2022-07-29T11:21:38;28.40;86.30
18998;DHT22;9632;51.018;4.284;2022-07-29T11:24:14;28.50;86.50
18998;DHT22;9632;51.018;4.284;2022-07-29T11:26:41;28.60;90.00
18998;DHT22;9632;51.018;4.284;2022-07-29T11:29:20;28.60;89.00
18998;DHT22;9632;51.018;4.284;2022-07-29T11:31:49;28.70;86.60
18998;DHT22;9632;51.018;4.284;2022-07-29T11:39:47;28.80;87.00
18998;DHT22;9632;51.018;4.284;2022-07-29T11:45:09;28.90;90.10
18998;DHT22;9632;51.018;4.284;2022-07-29T11:47:41;28.70;85.80
18998;DHT22;9632;51.018;4.284;2022-07-29T11:50:10;28.70;85.10
18998;DHT22;9632;51.018;4.284;2022-07-29T11:52:41;28.70;84.70
18998;DHT22;9632;51.018;4.284;2022-07-29T11:57:49;28.80;86.20
18998;DHT22;9632;51.018;4.284;2022-07-29T12:00:35;28.90;88.40
18998;DHT22;9632;51.018;4.284;2022-07-29T12:03:04;29.00;85.40
18998;DHT22;9632;51.018;4.284;2022-07-29T12:08:11;29.10;88.10
18998;DHT22;9632;51.018;4.284;2022-07-29T12:10:37;29.20;88.40
18998;DHT22;9632;51.018;4.284;2022-07-29T12:13:04;29.40;88.10
18998;DHT22;9632;51.018;4.284;2022-07-29T12:15:29;29.50;88.20
18998;DHT22;9632;51.018;4.284;2022-07-29T12:17:55;29.50;86.60
18998;DHT22;9632;51.018;4.284;2022-07-29T12:20:28;29.50;82.00
18998;DHT22;9632;51.018;4.284;2022-07-29T12:22:55;29.50;85.90
18998;DHT22;9632;51.018;4.284;2022-07-29T12:25:23;29.50;83.40
18998;DHT22;9632;51.018;4.284;2022-07-29T12:28:03;29.50;85.00
18998;DHT22;9632;51.018;4.284;2022-07-29T12:30:47;29.60;84.90
18998;DHT22;9632;51.018;4.284;2022-07-29T12:33:24;29.60;83.10
18998;DHT22;9632;51.018;4.284;2022-07-29T12:35:57;29.60;84.20
18998;DHT22;9632;51.018;4.284;2022-07-29T12:38:23;29.60;82.10
18998;DHT22;9632;51.018;4.284;2022-07-29T12:40:49;29.60;81.00
18998;DHT22;9632;51.018;4.284;2022-07-29T12:43:19;29.60;80.70
18998;DHT22;9632;51.018;4.284;2022-07-29T12:45:47;29.50;82.30
18998;DHT22;9632;51.018;4.284;2022-07-29T12:48:15;29.50;84.30
18998;DHT22;9632;51.018;4.284;2022-07-29T12:50:58;29.30;83.60
18998;DHT22;9632;51.018;4.284;2022-07-29T12:53:24;29.20;82.60
18998;DHT22;9632;51.018;4.284;2022-07-29T12:55:52;29.20;84.10
18998;DHT22;9632;51.018;4.284;2022-07-29T13:01:09;29.10;83.30
18998;DHT22;9632;51.018;4.284;2022-07-29T13:03:51;29.10;82.80
18998;DHT22;9632;51.018;4.284;2022-07-29T13:06:37;29.10;84.10
18998;DHT22;9632;51.018;4.284;2022-07-29T13:09:04;28.90;85.80
18998;DHT22;9632;51.018;4.284;2022-07-29T13:11:32;28.90;86.30
18998;DHT22;9632;51.018;4.284;2022-07-29T13:13:58;28.80;85.70
18998;DHT22;9632;51.018;4.284;2022-07-29T13:16:24;28.80;87.00
18998;DHT22;9632;51.018;4.284;2022-07-29T13:19:11;28.70;87.40
18998;DHT22;9632;51.018;4.284;2022-07-29T13:21:38;28.70;88.50
18998;DHT22;9632;51.018;4.284;2022-07-29T13:24:07;28.70;86.60
18998;DHT22;9632;51.018;4.284;2022-07-29T13:26:34;28.70;83.30
18998;DHT22;9632;51.018;4.284;2022-07-29T13:28:59;28.70;83.20
18998;DHT22;9632;51.018;4.284;2022-07-29T13:31:25;28.70;85.20
18998;DHT22;9632;51.018;4.284;2022-07-29T13:33:51;28.70;83.10
18998;DHT22;9632;51.018;4.284;2022-07-29T13:36:16;28.70;85.10
18998;DHT22;9632;51.018;4.284;2022-07-29T13:38:42;28.70;86.20
18998;DHT22;9632;51.018;4.284;2022-07-29T13:41:08;28.70;85.70
18998;DHT22;9632;51.018;4.284;2022-07-29T13:43:34;28.80;85.40
18998;DHT22;9632;51.018;4.284;2022-07-29T13:46:00;28.90;86.90
18998;DHT22;9632;51.018;4.284;2022-07-29T13:48:25;29.00;86.50
18998;DHT22;9632;51.018;4.284;2022-07-29T13:50:51;29.10;86.30
18998;DHT22;9632;51.018;4.284;2022-07-29T13:53:16;29.10;83.90
18998;DHT22;9632;51.018;4.284;2022-07-29T13:55:42;29.20;84.60
18998;DHT22;9632;51.018;4.284;2022-07-29T13:58:08;29.20;83.90
18998;DHT22;9632;51.018;4.284;2022-07-29T14:00:33;29.20;83.10
18998;DHT22;9632;51.018;4.284;2022-07-29T14:02:59;29.20;84.00
18998;DHT22;9632;51.018;4.284;2022-07-29T14:05:25;29.20;84.40
18998;DHT22;9632;51.018;4.284;2022-07-29T14:07:50;29.20;83.00
18998;DHT22;9632;51.018;4.284;2022-07-29T14:10:16;29.20;82.60
18998;DHT22;9632;51.018;4.284;2022-07-29T14:12:41;29.20;84.00
18998;DHT22;9632;51.018;4.284;2022-07-29T14:15:07;29.20;85.10
18998;DHT22;9632;51.018;4.284;2022-07-29T14:17:34;29.20;85.10
18998;DHT22;9632;51.018;4.284;2022-07-29T14:20:00;29.20;85.80
18998;DHT22;9632;51.018;4.284;2022-07-29T14:22:25;29.30;83.90
18998;DHT22;9632;51.018;4.284;2022-07-29T14:24:51;29.30;83.60
18998;DHT22;9632;51.018;4.284;2022-07-29T14:27:17;29.30;82.40
18998;DHT22;9632;51.018;4.284;2022-07-29T14:29:43;29.30;82.00
18998;DHT22;9632;51.018;4.284;2022-07-29T14:32:09;29.30;81.50
18998;DHT22;9632;51.018;4.284;2022-07-29T14:34:36;29.30;80.50
18998;DHT22;9632;51.018;4.284;2022-07-29T14:37:02;29.20;80.70
18998;DHT22;9632;51.018;4.284;2022-07-29T14:39:30;29.10;80.60
18998;DHT22;9632;51.018;4.284;2022-07-29T14:41:56;29.10;81.20
18998;DHT22;9632;51.018;4.284;2022-07-29T14:44:22;29.00;83.00
18998;DHT22;9632;51.018;4.284;2022-07-29T14:46:47;29.00;83.70
18998;DHT22;9632;51.018;4.284;2022-07-29T14:49:13;28.90;83.80
18998;DHT22;9632;51.018;4.284;2022-07-29T14:51:38;29.00;81.80
18998;DHT22;9632;51.018;4.284;2022-07-29T14:54:04;29.00;82.20
18998;DHT22;9632;51.018;4.284;2022-07-29T14:56:30;29.00;80.60
18998;DHT22;9632;51.018;4.284;2022-07-29T14:58:58;28.90;80.60
18998;DHT22;9632;51.018;4.284;2022-07-29T15:01:24;28.80;82.50
18998;DHT22;9632;51.018;4.284;2022-07-29T15:03:50;28.80;83.30
18998;DHT22;9632;51.018;4.284;2022-07-29T15:06:16;28.80;82.70
18998;DHT22;9632;51.018;4.284;2022-07-29T15:08:42;28.70;80.10
18998;DHT22;9632;51.018;4.284;2022-07-29T15:11:07;28.80;80.80
18998;DHT22;9632;51.018;4.284;2022-07-29T15:13:34;28.70;83.20
18998;DHT22;9632;51.018;4.284;2022-07-29T15:15:59;28.70;82.40
18998;DHT22;9632;51.018;4.284;2022-07-29T15:18:25;28.70;83.50
18998;DHT22;9632;51.018;4.284;2022-07-29T15:20:51;28.70;82.20
18998;DHT22;9632;51.018;4.284;2022-07-29T15:23:16;28.70;82.20
18998;DHT22;9632;51.018;4.284;2022-07-29T15:25:42;28.70;80.10
18998;DHT22;9632;51.018;4.284;2022-07-29T15:28:08;28.60;79.60
18998;DHT22;9632;51.018;4.284;2022-07-29T15:30:35;28.60;82.70
18998;DHT22;9632;51.018;4.284;2022-07-29T15:33:06;28.60;82.10
18998;DHT22;9632;51.018;4.284;2022-07-29T15:35:32;28.50;82.80
18998;DHT22;9632;51.018;4.284;2022-07-29T15:37:57;28.50;83.40
18998;DHT22;9632;51.018;4.284;2022-07-29T15:40:23;28.40;84.00
18998;DHT22;9632;51.018;4.284;2022-07-29T15:42:49;28.30;84.80
18998;DHT22;9632;51.018;4.284;2022-07-29T15:45:14;28.30;84.60
18998;DHT22;9632;51.018;4.284;2022-07-29T15:47:40;28.30;83.70
18998;DHT22;9632;51.018;4.284;2022-07-29T15:50:06;28.30;81.50
18998;DHT22;9632;51.018;4.284;2022-07-29T15:52:37;28.30;81.10
18998;DHT22;9632;51.018;4.284;2022-07-29T15:55:03;28.30;81.10
18998;DHT22;9632;51.018;4.284;2022-07-29T15:57:28;28.30;82.20
18998;DHT22;9632;51.018;4.284;2022-07-29T15:59:54;28.20;82.90
18998;DHT22;9632;51.018;4.284;2022-07-29T16:02:20;28.20;84.40
18998;DHT22;9632;51.018;4.284;2022-07-29T16:04:45;28.20;82.00
18998;DHT22;9632;51.018;4.284;2022-07-29T16:07:11;28.10;82.30
18998;DHT22;9632;51.018;4.284;2022-07-29T16:09:37;28.10;82.70
18998;DHT22;9632;51.018;4.284;2022-07-29T16:12:03;28.10;83.90
18998;DHT22;9632;51.018;4.284;2022-07-29T16:14:29;28.10;83.20
18998;DHT22;9632;51.018;4.284;2022-07-29T16:16:55;28.10;84.00
18998;DHT22;9632;51.018;4.284;2022-07-29T16:19:20;28.10;85.10
18998;DHT22;9632;51.018;4.284;2022-07-29T16:21:46;28.10;82.40
18998;DHT22;9632;51.018;4.284;2022-07-29T16:24:12;28.10;84.50
18998;DHT22;9632;51.018;4.284;2022-07-29T16:26:37;28.00;85.40
18998;DHT22;9632;51.018;4.284;2022-07-29T16:29:03;28.00;85.80